Pagina principale
METAR-TAF:

METAR-TAF

Aeroporti :

Dübendorf, Svizzera

latitudine: 47-23-55N, longitudine: 8-38-53E, altezza: 448 m

Osservazione

Il bollettino è stato emesso 1 ora e 1 minuti fa, alle 14:50 UTC
Vento 7 kt da nord/nord-ovest
Temperature 5°C
Umidità 75%
Pressione 1021 hPa
Visibilità 10 km o più
Poco nuvoloso ad un'altezza di 4900 ft
Nubi sparse ad un'altezza di 5900 ft

METAR: LSMD 191450Z AUTO 34007KT 9999NDV FEW049 SCT059 05/01 Q1021 RMK

Ora: 16:51 (15:51 UTC)


TAF: mancante

Osservazioni e previsioni meteorologiche di più di 4000 aeroporti (messaggi METAR e TAF).

Le stazioni disponibili sono rappresentate dai dischi gialli e rossi sulla carta.

Puntare il mouse per vedere il nome della stazione.

Clicca sopra per visualizzare le osservazioni e previsioni meteorologiche.

Per cambiare la mappa : fare clic sui pulsanti verdi con una croce nera per ingrandire, il pulsante verde con un trattino per diminuire, o sulla freccia verde per le mappe adiacenti.


METAR-TAF: